Startpagina
METAR-TAF:

METAR-TAF

Vliegvelden :

Exeter International Airport

Exeter, Engeland

breedte: 50-44N, lengte: 003-25W, hoogte: 30 m

Actueel weer

Dit bericht is 11 uur en het 20 minuten geleden gemaakt, om 01:20 UTC
Wind 3 kt uit het noordnoordoosten
Temperatuur 8°C
Vochtigheid 49%
Druk 1023 hPa
Zicht 10 km of meer
geen wolken onder 1500 m en geen cumulonimbus

METAR: EGTE 300120Z 03003KT CAVOK 08/M02 Q1023

Tijdstip: 13:40 (12:40 UTC)

Verwachting

Dit bericht is 14 uur en het 41 minuten geleden gemaakt, om 21:59 UTC
Verwachting geldig van 29 om 22 UTC tot 30 om 02 UTC
Wind 2 kt uit variabele richting
Zicht 10 km of meer
geen wolken onder 1500 m en geen cumulonimbus
Kans 30%
van 30 om 00 UTC tot 30 om 02 UTC
Zicht: 8000 m

TAF: EGTE 292159Z 2922/3002 VRB02KT CAVOK PROB30 3000/3002 8000

Waarnemingen en weersverwachtingen van meer dan 4000 vliegvelden (METAR en TAF).

De beschikbare stations zijn de gele en rode punten op de kaart.

Ga met uw muis naar het station om de naam te zien.

Klik dan om waarnemingen en weersverwachtingen te zien.

kaart wijzigen: klik op de groene knoppen met een zwart kruis om in te zoomen, op de groene knop met een streepje om uit te zoomen of op de groene pijlen voor aangrenzende kaarten.


METAR-TAF: